Time;durP1;ratioP1;P1;durP2;ratioP2;P2;SDS_P1;SDS_P2;PMS_P1;PMS_P2;Temp;Humidity;BMP_temperature;BMP_pressure;BME280_temperature;BME280_humidity;BME280_pressure;Samples;Min_cycle;Max_cycle;Signal;HPM_P1;HPM_P2
2022/10/15 00:00:43;;;;;;;58.28;37.38;;;12.70;99.90;;;;;;5030574;28;20041;-80
2022/10/15 00:03:09;;;;;;;63.22;37.25;;;12.30;99.90;;;;;;5030980;28;20117;-81
2022/10/15 00:05:39;;;;;;;60.60;37.83;;;13.00;99.90;;;;;;5030547;28;20129;-82
2022/10/15 00:08:06;;;;;;;60.88;37.42;;;12.30;99.90;;;;;;5030914;28;20037;-77
2022/10/15 00:10:31;;;;;;;59.33;36.78;;;12.60;99.90;;;;;;5030935;28;20072;-81
2022/10/15 00:12:57;;;;;;;56.75;35.90;;;12.40;99.90;;;;;;5028632;28;20041;-81
2022/10/15 00:15:23;;;;;;;62.75;36.75;;;12.30;99.90;;;;;;5030420;28;20341;-82
2022/10/15 00:17:49;;;;;;;67.72;39.08;;;12.40;99.90;;;;;;5030277;28;20049;-82
2022/10/15 00:20:14;;;;;;;60.35;36.83;;;12.30;99.90;;;;;;5029009;28;20042;-82
2022/10/15 00:22:40;;;;;;;61.97;36.50;;;12.80;99.90;;;;;;5029604;28;20103;-78
2022/10/15 00:25:07;;;;;;;59.95;38.38;;;12.80;99.90;;;;;;5030470;28;20072;-84
2022/10/15 00:27:34;;;;;;;59.15;37.25;;;12.30;99.90;;;;;;5028683;28;20060;-82
2022/10/15 00:30:02;;;;;;;55.60;37.78;;;12.50;99.90;;;;;;5029937;28;20049;-81
2022/10/15 00:32:28;;;;;;;61.78;37.28;;;12.70;99.90;;;;;;5030631;28;20532;-79
2022/10/15 00:34:54;;;;;;;63.33;37.75;;;12.30;99.90;;;;;;5030524;28;20053;-81
2022/10/15 00:37:20;;;;;;;60.80;36.72;;;12.50;99.90;;;;;;5030374;28;20103;-80
2022/10/15 00:39:46;;;;;;;57.45;36.08;;;12.70;99.90;;;;;;5030171;28;20405;-82
2022/10/15 00:42:11;;;;;;;55.75;35.85;;;12.30;99.90;;;;;;5030136;28;20049;-80
2022/10/15 00:44:55;;;;;;;59.67;37.40;;;12.90;99.90;;;;;;5027837;28;20392;-80
2022/10/15 00:47:29;;;;;;;52.03;34.63;;;12.30;99.90;;;;;;5030218;28;20396;-81
2022/10/15 00:50:00;;;;;;;54.30;36.28;;;12.50;99.90;;;;;;5030367;28;20096;-81
2022/10/15 00:52:52;;;;;;;59.92;37.30;;;12.30;99.90;;;;;;5030418;28;20494;-83
2022/10/15 00:55:41;;;;;;;54.83;37.00;;;12.80;99.90;;;;;;5022399;28;20049;-83
2022/10/15 00:58:14;;;;;;;57.95;37.28;;;12.30;99.90;;;;;;4988216;28;20050;-82
2022/10/15 01:00:40;;;;;;;57.42;37.92;;;12.30;99.90;;;;;;4987676;28;20062;-80
2022/10/15 01:03:05;;;;;;;53.45;35.97;;;12.20;99.90;;;;;;4988059;28;20068;-81
2022/10/15 01:05:32;;;;;;;61.38;38.15;;;12.60;99.90;;;;;;4984538;28;20038;-81
2022/10/15 01:07:58;;;;;;;54.85;34.90;;;12.20;99.90;;;;;;4980759;28;20057;-83
2022/10/15 01:10:34;;;;;;;54.28;34.72;;;12.20;99.90;;;;;;4988102;28;20054;-81
2022/10/15 01:13:05;;;;;;;55.97;36.25;;;12.30;99.90;;;;;;4987740;28;20532;-83
2022/10/15 01:15:54;;;;;;;61.92;38.20;;;12.20;99.90;;;;;;4986997;28;20153;-84
2022/10/15 01:18:25;;;;;;;55.13;36.70;;;12.20;99.90;;;;;;4987883;28;20052;-82
2022/10/15 01:20:53;;;;;;;56.17;36.13;;;12.80;99.90;;;;;;4987884;28;20066;-83
2022/10/15 01:23:38;;;;;;;60.60;35.15;;;12.20;99.90;;;;;;4987732;28;20054;-80
2022/10/15 01:26:29;;;;;;;59.03;35.40;;;12.20;99.90;;;;;;4988158;28;20501;-82
2022/10/15 01:29:28;;;;;;;52.25;35.13;;;12.20;99.90;;;;;;4914173;29;20172;-84
2022/10/15 01:32:08;;;;;;;62.22;35.45;;;12.20;99.90;;;;;;4929824;29;20055;-82
2022/10/15 01:35:00;;;;;;;52.50;32.95;;;12.20;99.90;;;;;;4945896;28;20087;-83
2022/10/15 01:37:36;;;;;;;51.67;33.65;;;12.10;99.90;;;;;;4971415;28;20046;-80
2022/10/15 01:40:11;;;;;;;55.03;34.38;;;12.50;99.90;;;;;;4988034;28;20113;-86
2022/10/15 01:42:42;;;;;;;59.50;33.67;;;12.10;99.90;;;;;;4987708;28;20466;-81
2022/10/15 01:45:11;;;;;;;55.92;33.65;;;12.40;99.90;;;;;;4987876;28;20072;-83
2022/10/15 01:47:45;;;;;;;56.28;34.03;;;12.60;99.90;;;;;;4987205;28;20743;-81
2022/10/15 01:50:13;;;;;;;54.92;35.03;;;12.30;99.90;;;;;;4971559;28;20066;-82
2022/10/15 01:52:40;;;;;;;59.63;33.50;;;12.10;99.90;;;;;;4987761;28;20054;-79
2022/10/15 01:55:10;;;;;;;52.83;33.92;;;12.10;99.90;;;;;;4987766;28;20400;-83
2022/10/15 01:57:38;;;;;;;52.63;31.60;;;12.30;99.90;;;;;;4987669;28;20506;-81
2022/10/15 02:00:04;;;;;;;49.78;31.33;;;12.10;99.90;;;;;;4987602;28;20114;-84
2022/10/15 02:02:30;;;;;;;51.00;33.90;;;12.10;99.90;;;;;;4969968;28;20129;-81
2022/10/15 02:04:56;;;;;;;55.65;32.35;;;12.10;99.90;;;;;;4991316;28;20153;-82
2022/10/15 02:07:33;;;;;;;51.15;32.45;;;12.10;99.90;;;;;;5029509;28;20052;-80
2022/10/15 02:10:26;;;;;;;49.47;30.92;;;12.70;99.90;;;;;;5029522;28;20046;-81
2022/10/15 02:13:11;;;;;;;52.15;32.72;;;12.10;99.90;;;;;;5029448;28;20183;-81
2022/10/15 02:15:51;;;;;;;51.00;31.23;;;12.50;99.90;;;;;;5028353;28;20119;-77
2022/10/15 02:18:50;;;;;;;58.88;32.72;;;12.00;99.90;;;;;;5029394;28;20107;-84
2022/10/15 02:21:23;;;;;;;56.50;34.25;;;12.00;99.90;;;;;;5029288;28;20041;-76
2022/10/15 02:24:12;;;;;;;56.85;32.70;;;12.20;99.90;;;;;;5029613;28;20049;-80
2022/10/15 02:26:39;;;;;;;59.85;31.60;;;12.00;99.90;;;;;;5029338;28;20054;-82
2022/10/15 02:29:09;;;;;;;59.28;33.85;;;12.30;99.90;;;;;;5032146;28;20045;-83
2022/10/15 02:31:39;;;;;;;54.03;32.92;;;12.20;99.90;;;;;;5032494;28;20041;-83
2022/10/15 02:34:08;;;;;;;53.13;33.47;;;12.00;99.90;;;;;;5032575;28;20057;-83
2022/10/15 02:36:35;;;;;;;51.30;32.03;;;12.00;99.90;;;;;;5032551;28;20048;-81
2022/10/15 02:39:03;;;;;;;57.28;32.85;;;12.00;99.90;;;;;;5032784;28;20054;-82
2022/10/15 02:41:32;;;;;;;58.03;33.80;;;12.20;99.90;;;;;;5032670;28;20048;-81
2022/10/15 02:43:58;;;;;;;55.40;33.30;;;12.30;99.90;;;;;;5031973;28;20045;-84
2022/10/15 02:46:23;;;;;;;53.17;32.22;;;12.00;99.90;;;;;;5032047;28;20485;-82
2022/10/15 02:48:49;;;;;;;53.05;33.10;;;12.00;99.90;;;;;;5032636;28;20084;-83
2022/10/15 02:51:14;;;;;;;53.28;32.58;;;12.40;99.90;;;;;;5032505;28;20136;-82
2022/10/15 02:53:40;;;;;;;51.78;31.80;;;12.00;99.90;;;;;;5032609;28;20053;-81
2022/10/15 02:56:06;;;;;;;56.60;34.45;;;12.40;99.90;;;;;;5032451;28;20056;-81
2022/10/15 02:58:31;;;;;;;56.88;32.88;;;12.00;99.90;;;;;;5032316;28;20049;-79
2022/10/15 03:00:57;;;;;;;54.35;32.97;;;12.50;99.90;;;;;;5031951;28;20037;-82
2022/10/15 03:03:23;;;;;;;57.33;32.95;;;12.00;99.90;;;;;;5032145;28;20045;-83
2022/10/15 03:05:48;;;;;;;56.85;33.13;;;12.00;99.90;;;;;;5031568;28;20141;-81
2022/10/15 03:08:14;;;;;;;52.05;32.38;;;12.00;99.90;;;;;;5030903;28;20110;-82
2022/10/15 03:10:39;;;;;;;53.53;33.65;;;12.00;99.90;;;;;;5031003;28;20045;-82
2022/10/15 03:13:05;;;;;;;59.40;33.13;;;12.00;99.90;;;;;;5032176;28;20053;-82
2022/10/15 03:15:31;;;;;;;53.33;31.45;;;12.60;99.90;;;;;;5031698;28;20523;-81
2022/10/15 03:17:57;;;;;;;50.33;31.73;;;12.40;99.90;;;;;;5030196;28;20049;-81
2022/10/15 03:20:23;;;;;;;58.75;33.20;;;12.40;99.90;;;;;;5032168;28;20388;-82
2022/10/15 03:22:49;;;;;;;53.35;31.05;;;12.20;99.90;;;;;;5032207;28;20148;-85
2022/10/15 03:25:14;;;;;;;52.72;31.95;;;11.90;99.90;;;;;;5030343;28;20057;-85
2022/10/15 03:27:40;;;;;;;54.58;32.55;;;12.10;99.90;;;;;;5031597;28;20085;-85
2022/10/15 03:30:07;;;;;;;57.17;33.45;;;12.00;99.90;;;;;;5031724;28;20056;-79
2022/10/15 03:32:32;;;;;;;54.88;32.33;;;11.90;99.90;;;;;;5031509;28;20081;-83
2022/10/15 03:34:58;;;;;;;52.50;32.97;;;12.30;99.90;;;;;;5031423;28;20477;-83
2022/10/15 03:37:24;;;;;;;57.72;32.95;;;11.90;99.90;;;;;;5031259;28;20132;-84
2022/10/15 03:39:49;;;;;;;52.80;34.05;;;12.00;99.90;;;;;;5029047;28;20057;-83
2022/10/15 03:42:15;;;;;;;54.13;32.67;;;11.90;99.90;;;;;;5031308;28;20056;-82
2022/10/15 03:44:40;;;;;;;60.40;32.72;;;12.70;99.90;;;;;;5031000;28;20084;-82
2022/10/15 03:47:06;;;;;;;58.08;33.28;;;12.00;99.90;;;;;;5029434;28;20050;-84
2022/10/15 03:49:32;;;;;;;62.30;35.10;;;12.50;99.90;;;;;;5031150;28;20049;-81
2022/10/15 03:51:58;;;;;;;57.33;33.67;;;12.10;99.90;;;;;;5031563;28;20045;-80
2022/10/15 03:54:23;;;;;;;66.28;34.22;;;12.10;99.90;;;;;;5029655;28;20053;-83
2022/10/15 03:56:49;;;;;;;58.70;33.58;;;11.90;99.90;;;;;;5030921;28;20045;-83
2022/10/15 03:59:15;;;;;;;56.75;34.83;;;12.00;99.90;;;;;;5031233;28;20124;-84
2022/10/15 04:01:42;;;;;;;57.78;34.47;;;12.30;99.90;;;;;;5031139;28;20099;-86
2022/10/15 04:04:10;;;;;;;61.45;33.92;;;12.30;99.90;;;;;;5031037;28;20045;-82
2022/10/15 04:06:36;;;;;;;62.65;35.47;;;12.10;99.90;;;;;;5031105;28;20045;-81
2022/10/15 04:09:02;;;;;;;57.13;33.20;;;12.30;99.90;;;;;;5028999;28;20080;-81
2022/10/15 04:11:27;;;;;;;59.00;33.90;;;11.90;99.90;;;;;;5030630;28;20044;-78
2022/10/15 04:13:53;;;;;;;60.40;35.17;;;11.90;99.90;;;;;;5030230;28;20045;-80
2022/10/15 04:16:18;;;;;;;64.93;34.83;;;11.90;99.90;;;;;;5030594;28;20500;-89
2022/10/15 04:18:44;;;;;;;58.42;33.55;;;11.90;99.90;;;;;;5030472;28;20044;-82
2022/10/15 04:21:10;;;;;;;58.78;33.13;;;12.00;99.90;;;;;;5030561;28;20041;-84
2022/10/15 04:23:35;;;;;;;58.20;33.95;;;11.90;99.90;;;;;;5030697;28;20038;-83
2022/10/15 04:26:01;;;;;;;57.05;33.90;;;11.90;99.90;;;;;;5030149;28;20123;-81
2022/10/15 04:28:27;;;;;;;66.45;36.15;;;12.00;99.90;;;;;;5045408;28;20049;-83
2022/10/15 04:30:57;;;;;;;60.28;34.15;;;11.90;99.90;;;;;;5030659;28;20465;-80
2022/10/15 04:33:23;;;;;;;72.18;35.53;;;11.90;99.90;;;;;;5030320;28;20042;-83
2022/10/15 04:36:00;;;;;;;53.90;32.00;;;11.90;99.90;;;;;;5030195;28;20479;-86
2022/10/15 04:38:26;;;;;;;56.75;34.13;;;11.90;99.90;;;;;;5029857;28;20045;-83
2022/10/15 04:41:06;;;;;;;57.35;33.50;;;11.90;99.90;;;;;;5029467;28;20099;-83
2022/10/15 04:43:32;;;;;;;59.85;34.28;;;11.90;99.90;;;;;;5029880;28;20085;-81
2022/10/15 04:45:59;;;;;;;55.75;32.55;;;12.30;99.90;;;;;;5029927;28;20048;-84
2022/10/15 04:48:27;;;;;;;54.88;32.85;;;11.90;99.90;;;;;;5029976;28;20539;-82
2022/10/15 04:50:53;;;;;;;59.88;33.28;;;11.90;99.90;;;;;;5030206;28;20045;-80
2022/10/15 04:53:19;;;;;;;55.53;33.42;;;11.90;99.90;;;;;;5030017;28;20049;-83
2022/10/15 04:55:45;;;;;;;58.70;34.03;;;12.30;99.90;;;;;;5029997;28;20041;-82
2022/10/15 04:58:11;;;;;;;62.35;35.53;;;12.40;99.90;;;;;;5028599;28;20477;-81
2022/10/15 05:00:37;;;;;;;59.00;32.83;;;11.90;99.90;;;;;;5011921;28;20051;-81
2022/10/15 05:03:07;;;;;;;58.67;34.30;;;11.90;99.90;;;;;;5028617;28;20053;-78
2022/10/15 05:05:33;;;;;;;62.50;34.58;;;11.90;99.90;;;;;;5029677;28;20535;-82
2022/10/15 05:08:03;;;;;;;54.08;33.13;;;12.30;99.90;;;;;;5028613;28;20052;-83
2022/10/15 05:10:28;;;;;;;59.50;35.47;;;11.90;99.90;;;;;;5029740;28;20123;-81
2022/10/15 05:12:54;;;;;;;64.57;34.78;;;12.00;99.90;;;;;;5029428;28;20057;-83
2022/10/15 05:15:20;;;;;;;67.47;36.38;;;12.20;99.90;;;;;;5029599;28;20034;-82
2022/10/15 05:17:45;;;;;;;65.95;37.08;;;12.20;99.90;;;;;;5030025;28;20053;-79
2022/10/15 05:20:11;;;;;;;65.60;35.95;;;11.90;99.90;;;;;;5029861;28;20046;-81
2022/10/15 05:22:36;;;;;;;63.55;36.53;;;12.00;99.90;;;;;;5029705;28;20504;-77
2022/10/15 05:25:02;;;;;;;62.42;36.60;;;11.90;99.90;;;;;;5028116;28;20049;-77
2022/10/15 05:27:28;;;;;;;67.25;38.35;;;11.90;99.90;;;;;;5029225;28;20110;-83
2022/10/15 05:29:53;;;;;;;75.00;37.95;;;11.90;99.90;;;;;;5028948;28;20041;-81
2022/10/15 05:32:19;;;;;;;68.38;38.28;;;11.90;99.90;;;;;;5011903;28;20552;-79
2022/10/15 05:34:44;;;;;;;73.72;38.20;;;11.90;99.90;;;;;;5028358;28;20045;-81
2022/10/15 05:37:10;;;;;;;72.05;38.85;;;11.90;99.90;;;;;;5029845;28;20090;-81
2022/10/15 05:39:36;;;;;;;68.50;39.15;;;11.90;99.90;;;;;;5029527;28;20045;-80
2022/10/15 05:42:01;;;;;;;71.65;38.83;;;11.90;99.90;;;;;;5029563;28;20049;-79
2022/10/15 05:44:27;;;;;;;70.75;39.50;;;11.90;99.90;;;;;;5028744;28;20057;-78
2022/10/15 05:46:52;;;;;;;74.28;39.45;;;11.90;99.90;;;;;;5029443;28;20624;-81
2022/10/15 05:49:18;;;;;;;72.63;40.33;;;12.00;99.90;;;;;;5027803;28;20058;-79
2022/10/15 05:51:44;;;;;;;76.43;41.03;;;11.90;99.90;;;;;;5029603;28;20085;-83
2022/10/15 05:54:09;;;;;;;86.75;42.42;;;11.90;99.90;;;;;;5029210;28;20049;-80
2022/10/15 05:56:35;;;;;;;79.68;41.00;;;11.90;99.90;;;;;;5029629;28;20049;-80
2022/10/15 05:59:02;;;;;;;76.72;43.53;;;11.90;99.90;;;;;;5028936;28;20112;-83
2022/10/15 06:01:27;;;;;;;78.63;43.08;;;11.90;99.90;;;;;;5029293;28;20056;-81
2022/10/15 06:03:53;;;;;;;78.93;44.50;;;11.90;99.90;;;;;;5032420;28;20481;-82
2022/10/15 06:06:25;;;;;;;73.57;41.70;;;11.80;99.90;;;;;;5033302;28;20053;-80
2022/10/15 06:08:52;;;;;;;87.22;44.63;;;11.90;99.90;;;;;;5032937;28;20139;-83
2022/10/15 06:11:18;;;;;;;90.47;45.40;;;12.40;99.90;;;;;;5033402;28;20045;-81
2022/10/15 06:13:45;;;;;;;82.43;45.08;;;11.90;99.90;;;;;;5032893;28;20556;-83
2022/10/15 06:16:13;;;;;;;83.57;45.08;;;11.90;99.90;;;;;;5032634;28;20053;-78
2022/10/15 06:18:39;;;;;;;88.30;44.67;;;12.10;99.90;;;;;;5031634;28;20107;-82
2022/10/15 06:21:05;;;;;;;78.47;44.38;;;11.90;99.90;;;;;;5033151;28;20440;-80
2022/10/15 06:23:31;;;;;;;97.60;45.33;;;11.90;99.90;;;;;;5033160;28;20153;-81
2022/10/15 06:26:05;;;;;;;82.20;44.35;;;11.90;99.90;;;;;;5031538;28;20191;-80
2022/10/15 06:28:31;;;;;;;91.43;43.53;;;11.90;99.90;;;;;;5032533;28;20084;-81
2022/10/15 06:31:00;;;;;;;88.10;44.65;;;11.90;99.90;;;;;;5032075;28;20136;-81
2022/10/15 06:33:27;;;;;;;82.97;44.80;;;11.90;99.90;;;;;;5031534;28;20467;-81
2022/10/15 06:35:53;;;;;;;88.30;44.40;;;12.00;99.90;;;;;;5032879;28;20037;-87
2022/10/15 06:38:19;;;;;;;90.03;46.17;;;12.50;99.90;;;;;;5032919;28;20087;-81
2022/10/15 06:40:45;;;;;;;82.30;44.60;;;11.90;99.90;;;;;;5032403;28;20446;-81
2022/10/15 06:43:13;;;;;;;86.65;43.88;;;12.00;99.90;;;;;;5032047;28;20057;-81
2022/10/15 06:45:41;;;;;;;91.25;46.70;;;12.20;99.90;;;;;;5032135;28;20053;-77
2022/10/15 06:48:07;;;;;;;84.18;44.53;;;11.90;99.90;;;;;;5032515;28;20045;-83
2022/10/15 06:50:35;;;;;;;79.38;43.22;;;12.20;99.90;;;;;;5032626;28;20045;-81
2022/10/15 06:53:01;;;;;;;88.35;44.22;;;12.40;99.90;;;;;;5032579;28;20132;-83
2022/10/15 06:55:30;;;;;;;82.88;44.60;;;12.30;99.90;;;;;;5032512;28;20111;-83
2022/10/15 06:57:56;;;;;;;85.88;45.45;;;11.90;99.90;;;;;;5032057;28;20045;-82
2022/10/15 07:00:23;;;;;;;81.53;44.95;;;12.40;99.90;;;;;;5031383;28;20094;-80
2022/10/15 07:02:49;;;;;;;84.53;43.70;;;12.00;99.90;;;;;;5029665;28;20080;-85
2022/10/15 07:05:16;;;;;;;91.45;44.88;;;12.20;99.90;;;;;;5032315;28;20042;-77
2022/10/15 07:07:42;;;;;;;81.75;42.13;;;11.90;99.90;;;;;;5032339;28;20416;-78
2022/10/15 07:10:08;;;;;;;85.90;43.58;;;12.30;99.90;;;;;;5032303;28;20520;-80
2022/10/15 07:12:34;;;;;;;103.13;46.67;;;12.00;99.90;;;;;;5031808;28;20112;-86
2022/10/15 07:14:59;;;;;;;82.35;44.25;;;12.00;99.90;;;;;;5029984;28;20068;-82
2022/10/15 07:17:25;;;;;;;88.72;45.60;;;12.00;99.90;;;;;;5031285;28;20400;-84
2022/10/15 07:19:50;;;;;;;88.28;45.17;;;12.40;99.90;;;;;;5030682;28;20049;-84
2022/10/15 07:22:16;;;;;;;89.25;43.38;;;12.50;99.90;;;;;;5030584;28;20045;-84
2022/10/15 07:24:42;;;;;;;82.45;43.10;;;12.10;99.90;;;;;;5030520;28;20054;-81
2022/10/15 07:27:07;;;;;;;90.00;44.15;;;12.00;99.90;;;;;;5030155;28;20041;-82
2022/10/15 07:29:33;;;;;;;80.97;42.85;;;12.30;99.90;;;;;;5046473;28;20061;-80
2022/10/15 07:31:59;;;;;;;91.78;43.85;;;12.00;99.90;;;;;;5031731;28;20088;-84
2022/10/15 07:34:24;;;;;;;89.88;47.38;;;12.10;99.90;;;;;;5031440;28;20045;-86
2022/10/15 07:36:50;;;;;;;86.97;46.08;;;12.10;99.90;;;;;;5030637;28;20083;-78
2022/10/15 07:39:18;;;;;;;89.50;43.90;;;12.20;99.90;;;;;;5031906;28;20041;-81
2022/10/15 07:41:45;;;;;;;87.30;44.22;;;12.50;99.90;;;;;;5030192;28;20045;-81
2022/10/15 07:44:10;;;;;;;97.55;46.22;;;12.20;99.90;;;;;;5031358;28;20061;-83
2022/10/15 07:46:36;;;;;;;82.82;43.92;;;12.20;99.90;;;;;;5030088;28;20050;-82
2022/10/15 07:49:02;;;;;;;81.22;44.58;;;12.20;99.90;;;;;;5030774;28;20046;-82
2022/10/15 07:51:27;;;;;;;97.43;46.83;;;12.30;99.90;;;;;;5031493;28;20366;-81
2022/10/15 07:53:54;;;;;;;85.50;44.63;;;12.50;99.90;;;;;;5031693;28;20045;-84
2022/10/15 07:56:19;;;;;;;80.10;43.30;;;12.30;99.90;;;;;;5031407;28;20049;-82
2022/10/15 07:58:50;;;;;;;87.85;44.25;;;12.30;99.90;;;;;;5031034;28;20070;-84
2022/10/15 08:01:17;;;;;;;87.80;45.47;;;12.80;99.90;;;;;;5030038;28;20050;-83
2022/10/15 08:03:43;;;;;;;89.82;44.53;;;12.50;99.90;;;;;;5030669;28;20045;-89
2022/10/15 08:06:09;;;;;;;87.50;44.85;;;12.50;99.90;;;;;;5012442;28;20046;-90
2022/10/15 08:08:35;;;;;;;87.72;44.90;;;12.50;99.90;;;;;;5030991;28;20045;-84
2022/10/15 08:11:09;;;;;;;95.13;47.15;;;12.90;99.90;;;;;;5026342;28;20108;-82
2022/10/15 08:13:37;;;;;;;85.50;44.67;;;12.60;99.90;;;;;;5030615;28;20049;-82
2022/10/15 08:16:03;;;;;;;94.85;46.97;;;12.60;99.90;;;;;;5032386;28;20057;-85
2022/10/15 08:18:29;;;;;;;87.60;44.92;;;12.70;99.90;;;;;;5030967;28;20207;-89
2022/10/15 08:20:59;;;;;;;83.90;45.00;;;13.10;99.90;;;;;;5029938;28;20557;-87
2022/10/15 08:23:24;;;;;;;87.53;44.85;;;12.80;99.90;;;;;;5030697;28;20120;-85
2022/10/15 08:25:50;;;;;;;88.38;44.80;;;13.10;99.90;;;;;;5030597;28;20132;-85
2022/10/15 08:28:15;;;;;;;94.50;45.95;;;13.10;99.90;;;;;;5030579;28;20064;-84
2022/10/15 08:30:41;;;;;;;86.88;45.67;;;12.80;99.90;;;;;;5029339;28;20057;-82
2022/10/15 08:33:07;;;;;;;92.60;46.25;;;13.00;99.90;;;;;;5029616;28;20045;-81
2022/10/15 08:35:35;;;;;;;85.07;44.58;;;13.40;99.90;;;;;;5029601;28;20429;-82
2022/10/15 08:38:01;;;;;;;84.68;44.67;;;13.00;99.90;;;;;;5028734;28;20053;-83
2022/10/15 08:40:28;;;;;;;87.40;43.67;;;13.00;99.90;;;;;;5030697;28;20049;-81
2022/10/15 08:42:54;;;;;;;80.45;42.88;;;13.40;99.90;;;;;;5030188;28;20061;-82
2022/10/15 08:45:24;;;;;;;95.85;45.05;;;13.50;99.90;;;;;;5030829;28;20116;-86
2022/10/15 08:47:57;;;;;;;84.90;44.60;;;13.10;99.90;;;;;;5030245;28;20481;-77
2022/10/15 08:50:53;;;;;;;88.28;45.25;;;13.40;99.90;;;;;;5030560;28;20041;-86
2022/10/15 08:53:21;;;;;;;86.07;46.00;;;13.10;99.90;;;;;;4987800;28;20073;-83
2022/10/15 08:55:54;;;;;;;95.20;46.30;;;13.20;99.90;;;;;;4988936;28;20054;-80
2022/10/15 08:58:36;;;;;;;90.40;46.95;;;13.10;99.90;;;;;;4987958;28;20096;-81
2022/10/15 09:01:28;;;;;;;90.43;47.15;;;13.20;99.90;;;;;;4988515;28;20129;-83
2022/10/15 09:04:36;;;;;;;78.90;41.67;;;13.20;99.90;;;;;;4988315;28;20081;-86
2022/10/15 09:07:29;;;;;;;79.13;42.53;;;13.20;99.90;;;;;;4911166;29;20051;-82
2022/10/15 09:10:16;;;;;;;68.97;39.05;;;13.30;99.90;;;;;;4911381;29;20546;-89
2022/10/15 09:12:59;;;;;;;64.82;37.78;;;13.30;99.90;;;;;;4895744;29;20135;-80
2022/10/15 09:15:29;;;;;;;66.43;35.53;;;13.70;99.90;;;;;;4911562;29;20044;-90
2022/10/15 09:17:55;;;;;;;67.55;38.10;;;13.50;99.90;;;;;;4911370;29;20188;-81
2022/10/15 09:20:35;;;;;;;72.85;37.60;;;13.30;99.90;;;;;;4911384;29;20579;-81
2022/10/15 09:23:01;;;;;;;67.55;35.95;;;13.20;99.90;;;;;;4910447;29;20095;-87
2022/10/15 09:25:34;;;;;;;69.57;37.22;;;13.40;99.90;;;;;;4911237;29;20965;-80
2022/10/15 09:28:09;;;;;;;61.22;35.47;;;13.20;99.90;;;;;;4911335;29;20067;-78
2022/10/15 09:30:49;;;;;;;64.68;35.53;;;13.20;99.90;;;;;;4938465;29;20051;-85
2022/10/15 09:33:29;;;;;;;53.58;30.98;;;13.20;99.90;;;;;;4949269;29;20047;-84
2022/10/15 09:36:02;;;;;;;56.35;31.83;;;13.30;99.90;;;;;;4948835;28;20055;-82
2022/10/15 09:38:42;;;;;;;56.67;32.28;;;13.10;99.90;;;;;;4951982;29;20054;-85
2022/10/15 09:41:44;;;;;;;62.53;31.23;;;13.10;99.90;;;;;;4953467;29;20043;-77
2022/10/15 09:44:13;;;;;;;49.75;29.38;;;13.10;99.90;;;;;;5025199;28;20057;-81
2022/10/15 09:46:46;;;;;;;52.53;30.25;;;13.10;99.90;;;;;;5033849;28;20058;-84
2022/10/15 09:49:18;;;;;;;52.70;28.73;;;13.60;99.90;;;;;;5032432;28;20064;-82
2022/10/15 09:51:47;;;;;;;54.08;27.70;;;13.40;99.90;;;;;;5033890;28;20046;-82
2022/10/15 09:54:18;;;;;;;50.20;28.20;;;13.00;99.90;;;;;;5033621;28;20409;-81
2022/10/15 09:56:56;;;;;;;50.63;28.08;;;13.00;99.90;;;;;;5033811;28;20049;-81
2022/10/15 09:59:24;;;;;;;59.08;30.50;;;13.60;99.90;;;;;;5033530;28;20053;-80
2022/10/15 10:02:24;;;;;;;61.50;31.55;;;13.30;99.90;;;;;;5031590;28;20427;-80
2022/10/15 10:04:50;;;;;;;59.53;31.25;;;13.50;99.90;;;;;;5024330;28;20057;-80
2022/10/15 10:07:35;;;;;;;56.78;32.15;;;13.10;99.90;;;;;;5033358;28;20048;-82
2022/10/15 10:10:21;;;;;;;59.57;31.73;;;13.50;99.90;;;;;;5013543;28;20138;-81
2022/10/15 10:12:47;;;;;;;56.92;30.10;;;13.20;99.90;;;;;;5013646;28;20561;-83
2022/10/15 10:15:27;;;;;;;55.85;30.30;;;13.30;99.90;;;;;;5025383;28;20045;-85
2022/10/15 10:17:54;;;;;;;54.80;28.60;;;13.40;99.90;;;;;;5033589;28;20502;-84
2022/10/15 10:20:22;;;;;;;50.55;28.00;;;13.30;99.90;;;;;;5033271;28;20280;-80
2022/10/15 10:22:51;;;;;;;48.53;28.60;;;13.50;99.90;;;;;;5031947;28;20382;-83
2022/10/15 10:25:26;;;;;;;50.53;28.02;;;13.40;99.90;;;;;;5032779;28;20084;-82
2022/10/15 10:28:30;;;;;;;48.83;28.55;;;13.40;99.90;;;;;;5031663;28;20069;-83
2022/10/15 10:31:06;;;;;;;47.70;26.63;;;13.30;99.90;;;;;;5031915;28;20132;-88
2022/10/15 10:33:47;;;;;;;49.88;26.63;;;13.80;99.90;;;;;;5032496;28;20125;-82
2022/10/15 10:36:35;;;;;;;47.53;27.15;;;13.40;99.90;;;;;;5031475;28;20041;-86
2022/10/15 10:39:13;;;;;;;39.80;24.65;;;13.40;99.90;;;;;;5032637;28;20684;-81
2022/10/15 10:41:59;;;;;;;48.53;26.17;;;13.60;99.90;;;;;;5032270;28;20045;-76
2022/10/15 10:44:25;;;;;;;43.70;25.58;;;13.60;99.90;;;;;;5032430;28;20505;-84
2022/10/15 10:47:10;;;;;;;43.83;23.88;;;14.00;99.90;;;;;;5032891;28;20132;-84
2022/10/15 10:49:43;;;;;;;43.22;23.00;;;13.80;99.90;;;;;;5032243;28;20049;-84
2022/10/15 10:52:33;;;;;;;38.50;22.48;;;13.80;99.90;;;;;;5032637;28;20060;-85
2022/10/15 10:55:21;;;;;;;32.88;19.88;;;14.00;99.90;;;;;;4974454;28;20067;-85
2022/10/15 10:58:00;;;;;;;32.10;19.67;;;13.90;99.90;;;;;;4989991;28;20054;-83
2022/10/15 11:00:42;;;;;;;27.88;18.05;;;14.60;99.90;;;;;;4990497;28;20430;-85
2022/10/15 11:03:29;;;;;;;27.67;18.65;;;14.10;99.90;;;;;;4990526;28;20046;-86
2022/10/15 11:06:22;;;;;;;28.95;17.98;;;14.20;99.90;;;;;;4990108;28;20062;-83
2022/10/15 11:08:53;;;;;;;27.63;17.13;;;14.20;99.90;;;;;;4990601;28;20042;-83
2022/10/15 11:11:52;;;;;;;27.40;16.55;;;14.20;99.90;;;;;;4974010;28;20081;-82
2022/10/15 11:14:59;;;;;;;24.80;16.75;;;14.60;99.90;;;;;;4971581;28;20061;-82
2022/10/15 11:17:33;;;;;;;25.30;15.70;;;14.30;99.90;;;;;;4970727;28;20827;-85
2022/10/15 11:20:29;;;;;;;23.65;15.82;;;14.30;99.90;;;;;;4954303;28;20047;-84
2022/10/15 11:23:10;;;;;;;23.63;14.80;;;14.40;99.90;;;;;;4970562;28;20055;-83
2022/10/15 11:26:20;;;;;;;22.85;15.68;;;14.50;99.90;;;;;;4970449;28;20066;-86
2022/10/15 11:29:12;;;;;;;21.70;15.15;;;14.40;99.90;;;;;;4931729;29;20508;-87
2022/10/15 11:32:01;;;;;;;20.63;15.20;;;14.50;99.90;;;;;;4938395;29;20062;-87
2022/10/15 11:34:52;;;;;;;20.25;14.05;;;14.50;99.90;;;;;;4935263;29;20058;-85
2022/10/15 11:37:37;;;;;;;23.88;14.48;;;14.50;99.90;;;;;;4935083;29;20234;-82
2022/10/15 11:40:14;;;;;;;22.23;13.82;;;14.60;99.90;;;;;;4950625;29;20066;-80
2022/10/15 11:42:57;;;;;;;19.52;13.68;;;14.60;99.90;;;;;;4934640;29;20551;-86
2022/10/15 11:45:48;;;;;;;22.08;14.45;;;14.70;99.90;;;;;;4950511;28;20594;-88
2022/10/15 11:48:48;;;;;;;20.90;14.82;;;14.70;99.90;;;;;;4950735;29;20384;-86
2022/10/15 11:51:52;;;;;;;20.42;14.68;;;14.80;99.90;;;;;;4950346;28;20073;-83
2022/10/15 11:54:55;;;;;;;21.48;14.98;;;14.90;99.90;;;;;;5005710;28;20168;-84
2022/10/15 11:57:23;;;;;;;20.33;15.18;;;14.90;99.90;;;;;;4989088;28;20096;-84
2022/10/15 11:59:59;;;;;;;23.35;15.45;;;15.00;99.90;;;;;;5004544;28;20109;-84
2022/10/15 12:02:34;;;;;;;22.70;16.65;;;15.10;99.90;;;;;;4988943;28;20058;-86
2022/10/15 12:05:07;;;;;;;21.08;15.50;;;15.60;99.90;;;;;;5002071;28;20061;-83
2022/10/15 12:07:44;;;;;;;21.42;15.30;;;15.10;99.90;;;;;;5011865;28;20481;-82
2022/10/15 12:10:31;;;;;;;21.77;15.82;;;15.30;99.90;;;;;;5012019;28;20191;-82
2022/10/15 12:13:23;;;;;;;19.30;13.98;;;15.20;99.90;;;;;;5012017;28;20842;-82
2022/10/15 12:16:05;;;;;;;22.08;14.52;;;15.20;99.90;;;;;;4991703;28;20140;-82
2022/10/15 12:18:48;;;;;;;24.13;14.63;;;15.30;99.90;;;;;;4996313;28;20052;-84
2022/10/15 12:21:45;;;;;;;19.10;14.55;;;15.70;99.90;;;;;;5027897;28;20164;-83
2022/10/15 12:24:39;;;;;;;21.80;13.65;;;15.40;99.90;;;;;;4969098;28;20058;-83
2022/10/15 12:27:35;;;;;;;21.60;13.93;;;15.40;99.90;;;;;;4969337;28;20153;-85
2022/10/15 12:30:01;;;;;;;22.50;14.70;;;15.70;99.90;;;;;;4934212;28;20070;-83
2022/10/15 12:32:27;;;;;;;22.73;15.75;;;15.50;99.90;;;;;;4933861;29;20484;-81
2022/10/15 12:35:01;;;;;;;18.45;13.55;;;15.40;99.90;;;;;;4934403;29;20063;-77
2022/10/15 12:37:30;;;;;;;24.88;14.95;;;15.50;99.90;;;;;;4950068;28;20054;-84
2022/10/15 12:39:59;;;;;;;19.35;13.63;;;15.60;99.90;;;;;;4966059;28;20567;-84
2022/10/15 12:42:35;;;;;;;19.75;14.93;;;15.40;99.90;;;;;;4949903;29;20074;-85
2022/10/15 12:45:19;;;;;;;21.33;14.30;;;15.40;99.90;;;;;;4950243;29;20058;-82
2022/10/15 12:47:53;;;;;;;18.65;13.90;;;15.30;99.90;;;;;;4949221;29;20533;-83
2022/10/15 12:50:21;;;;;;;24.95;17.25;;;15.30;99.90;;;;;;4949981;29;20617;-80